sensor_id;sensor_type;location;lat;lon;timestamp;P1;durP1;ratioP1;P2;durP2;ratioP2
46110;SDS011;31849;55.992;37.252;2022-09-13T00:00:53;7.68;;;5.68;;
46110;SDS011;31849;55.992;37.252;2022-09-13T00:05:58;9.00;;;5.20;;
46110;SDS011;31849;55.992;37.252;2022-09-13T00:11:13;9.02;;;5.15;;
46110;SDS011;31849;55.992;37.252;2022-09-13T00:16:20;8.23;;;5.47;;
46110;SDS011;31849;55.992;37.252;2022-09-13T00:21:27;6.72;;;4.88;;
46110;SDS011;31849;55.992;37.252;2022-09-13T00:26:31;8.55;;;5.20;;
46110;SDS011;31849;55.992;37.252;2022-09-13T00:31:35;9.27;;;5.45;;
46110;SDS011;31849;55.992;37.252;2022-09-13T00:36:41;7.87;;;5.13;;
46110;SDS011;31849;55.992;37.252;2022-09-13T00:41:45;6.57;;;5.30;;
46110;SDS011;31849;55.992;37.252;2022-09-13T00:46:49;7.20;;;5.10;;
46110;SDS011;31849;55.992;37.252;2022-09-13T00:51:57;7.40;;;4.60;;
46110;SDS011;31849;55.992;37.252;2022-09-13T00:57:06;8.23;;;4.88;;
46110;SDS011;31849;55.992;37.252;2022-09-13T01:02:13;7.88;;;5.18;;
46110;SDS011;31849;55.992;37.252;2022-09-13T01:12:25;7.38;;;5.63;;
46110;SDS011;31849;55.992;37.252;2022-09-13T01:17:35;7.88;;;5.38;;
46110;SDS011;31849;55.992;37.252;2022-09-13T01:28:23;8.10;;;5.38;;
46110;SDS011;31849;55.992;37.252;2022-09-13T01:34:15;7.13;;;5.53;;
46110;SDS011;31849;55.992;37.252;2022-09-13T01:39:33;8.65;;;5.68;;
46110;SDS011;31849;55.992;37.252;2022-09-13T01:44:53;8.25;;;5.22;;
46110;SDS011;31849;55.992;37.252;2022-09-13T01:50:10;7.55;;;5.53;;
46110;SDS011;31849;55.992;37.252;2022-09-13T01:55:23;8.00;;;5.95;;
46110;SDS011;31849;55.992;37.252;2022-09-13T02:00:35;7.35;;;6.00;;
46110;SDS011;31849;55.992;37.252;2022-09-13T02:05:46;9.63;;;5.85;;
46110;SDS011;31849;55.992;37.252;2022-09-13T02:10:55;8.02;;;5.82;;
46110;SDS011;31849;55.992;37.252;2022-09-13T02:16:07;9.73;;;6.03;;
46110;SDS011;31849;55.992;37.252;2022-09-13T02:21:19;9.25;;;5.90;;
46110;SDS011;31849;55.992;37.252;2022-09-13T02:26:26;7.65;;;5.75;;
46110;SDS011;31849;55.992;37.252;2022-09-13T02:31:33;8.27;;;6.32;;
46110;SDS011;31849;55.992;37.252;2022-09-13T02:36:43;12.30;;;6.72;;
46110;SDS011;31849;55.992;37.252;2022-09-13T02:41:51;11.18;;;6.47;;
46110;SDS011;31849;55.992;37.252;2022-09-13T02:47:03;11.30;;;7.10;;
46110;SDS011;31849;55.992;37.252;2022-09-13T02:52:17;11.77;;;6.88;;
46110;SDS011;31849;55.992;37.252;2022-09-13T02:57:29;13.68;;;7.72;;
46110;SDS011;31849;55.992;37.252;2022-09-13T03:02:39;11.52;;;7.85;;
46110;SDS011;31849;55.992;37.252;2022-09-13T03:07:47;13.43;;;8.00;;
46110;SDS011;31849;55.992;37.252;2022-09-13T03:18:44;11.77;;;8.35;;
46110;SDS011;31849;55.992;37.252;2022-09-13T03:23:58;12.27;;;9.00;;
46110;SDS011;31849;55.992;37.252;2022-09-13T03:29:16;12.75;;;9.10;;
46110;SDS011;31849;55.992;37.252;2022-09-13T03:34:33;13.75;;;9.70;;
46110;SDS011;31849;55.992;37.252;2022-09-13T03:39:47;12.43;;;8.63;;
46110;SDS011;31849;55.992;37.252;2022-09-13T03:44:56;13.68;;;9.45;;
46110;SDS011;31849;55.992;37.252;2022-09-13T03:50:05;14.55;;;9.77;;
46110;SDS011;31849;55.992;37.252;2022-09-13T03:55:13;12.95;;;9.90;;
46110;SDS011;31849;55.992;37.252;2022-09-13T04:05:21;13.33;;;10.07;;
46110;SDS011;31849;55.992;37.252;2022-09-13T04:10:26;11.73;;;9.07;;
46110;SDS011;31849;55.992;37.252;2022-09-13T04:15:32;12.30;;;8.73;;
46110;SDS011;31849;55.992;37.252;2022-09-13T04:20:36;11.67;;;8.13;;
46110;SDS011;31849;55.992;37.252;2022-09-13T04:25:42;11.35;;;8.50;;
46110;SDS011;31849;55.992;37.252;2022-09-13T04:30:48;11.48;;;9.27;;
46110;SDS011;31849;55.992;37.252;2022-09-13T04:35:53;11.10;;;7.65;;
46110;SDS011;31849;55.992;37.252;2022-09-13T04:41:02;9.88;;;7.00;;
46110;SDS011;31849;55.992;37.252;2022-09-13T04:46:07;10.88;;;7.30;;
46110;SDS011;31849;55.992;37.252;2022-09-13T04:51:11;8.90;;;7.38;;
46110;SDS011;31849;55.992;37.252;2022-09-13T04:56:17;11.85;;;7.25;;
46110;SDS011;31849;55.992;37.252;2022-09-13T05:01:24;10.07;;;7.03;;
46110;SDS011;31849;55.992;37.252;2022-09-13T05:06:28;11.38;;;6.53;;
46110;SDS011;31849;55.992;37.252;2022-09-13T05:11:33;11.00;;;6.93;;
46110;SDS011;31849;55.992;37.252;2022-09-13T05:16:38;9.13;;;6.90;;
46110;SDS011;31849;55.992;37.252;2022-09-13T05:21:42;10.93;;;7.40;;
46110;SDS011;31849;55.992;37.252;2022-09-13T05:26:48;10.13;;;7.13;;
46110;SDS011;31849;55.992;37.252;2022-09-13T05:31:52;11.55;;;7.32;;
46110;SDS011;31849;55.992;37.252;2022-09-13T05:36:56;9.70;;;7.68;;
46110;SDS011;31849;55.992;37.252;2022-09-13T05:42:02;13.52;;;8.13;;
46110;SDS011;31849;55.992;37.252;2022-09-13T05:47:07;11.00;;;7.95;;
46110;SDS011;31849;55.992;37.252;2022-09-13T05:52:12;11.77;;;7.90;;
46110;SDS011;31849;55.992;37.252;2022-09-13T05:57:17;12.32;;;7.22;;
46110;SDS011;31849;55.992;37.252;2022-09-13T06:02:22;11.02;;;7.35;;
46110;SDS011;31849;55.992;37.252;2022-09-13T06:07:26;10.82;;;7.50;;
46110;SDS011;31849;55.992;37.252;2022-09-13T06:12:30;9.27;;;6.63;;
46110;SDS011;31849;55.992;37.252;2022-09-13T06:22:38;10.13;;;7.57;;
46110;SDS011;31849;55.992;37.252;2022-09-13T06:27:43;12.48;;;7.68;;
46110;SDS011;31849;55.992;37.252;2022-09-13T06:32:50;11.95;;;7.10;;
46110;SDS011;31849;55.992;37.252;2022-09-13T06:37:53;9.90;;;7.10;;
46110;SDS011;31849;55.992;37.252;2022-09-13T06:43:01;11.52;;;6.50;;
46110;SDS011;31849;55.992;37.252;2022-09-13T06:53:08;8.95;;;6.13;;
46110;SDS011;31849;55.992;37.252;2022-09-13T06:58:13;7.85;;;6.10;;
46110;SDS011;31849;55.992;37.252;2022-09-13T07:03:17;10.73;;;6.55;;
46110;SDS011;31849;55.992;37.252;2022-09-13T07:08:21;8.13;;;6.00;;
46110;SDS011;31849;55.992;37.252;2022-09-13T07:13:26;9.80;;;5.25;;
46110;SDS011;31849;55.992;37.252;2022-09-13T07:18:30;8.52;;;5.32;;
46110;SDS011;31849;55.992;37.252;2022-09-13T07:23:34;6.50;;;5.10;;
46110;SDS011;31849;55.992;37.252;2022-09-13T07:28:41;10.00;;;4.88;;
46110;SDS011;31849;55.992;37.252;2022-09-13T07:33:46;5.38;;;3.95;;
46110;SDS011;31849;55.992;37.252;2022-09-13T07:38:54;6.45;;;4.05;;
46110;SDS011;31849;55.992;37.252;2022-09-13T07:44:01;7.78;;;4.30;;
46110;SDS011;31849;55.992;37.252;2022-09-13T07:49:07;6.90;;;3.78;;
46110;SDS011;31849;55.992;37.252;2022-09-13T07:54:12;6.80;;;4.50;;
46110;SDS011;31849;55.992;37.252;2022-09-13T07:59:18;5.80;;;3.85;;
46110;SDS011;31849;55.992;37.252;2022-09-13T08:04:25;6.90;;;4.30;;
46110;SDS011;31849;55.992;37.252;2022-09-13T08:09:28;7.20;;;3.53;;
46110;SDS011;31849;55.992;37.252;2022-09-13T08:14:34;8.02;;;3.80;;
46110;SDS011;31849;55.992;37.252;2022-09-13T08:19:37;6.38;;;4.05;;
46110;SDS011;31849;55.992;37.252;2022-09-13T08:24:41;7.07;;;4.13;;
46110;SDS011;31849;55.992;37.252;2022-09-13T08:29:46;4.73;;;3.30;;
46110;SDS011;31849;55.992;37.252;2022-09-13T08:34:50;3.80;;;2.88;;
46110;SDS011;31849;55.992;37.252;2022-09-13T08:39:54;5.25;;;2.80;;
46110;SDS011;31849;55.992;37.252;2022-09-13T08:50:05;5.13;;;2.63;;
46110;SDS011;31849;55.992;37.252;2022-09-13T08:55:24;6.93;;;2.58;;
46110;SDS011;31849;55.992;37.252;2022-09-13T09:00:37;4.10;;;2.75;;
46110;SDS011;31849;55.992;37.252;2022-09-13T09:05:46;4.68;;;2.50;;
46110;SDS011;31849;55.992;37.252;2022-09-13T09:10:51;6.40;;;2.38;;
46110;SDS011;31849;55.992;37.252;2022-09-13T09:16:00;5.93;;;2.58;;
46110;SDS011;31849;55.992;37.252;2022-09-13T09:21:09;7.35;;;3.13;;
46110;SDS011;31849;55.992;37.252;2022-09-13T09:26:24;5.05;;;3.03;;
46110;SDS011;31849;55.992;37.252;2022-09-13T09:31:33;8.15;;;2.78;;
46110;SDS011;31849;55.992;37.252;2022-09-13T09:36:43;4.47;;;2.70;;
46110;SDS011;31849;55.992;37.252;2022-09-13T09:41:50;5.85;;;2.90;;
46110;SDS011;31849;55.992;37.252;2022-09-13T09:47:02;7.82;;;3.03;;
46110;SDS011;31849;55.992;37.252;2022-09-13T09:52:13;5.15;;;3.55;;
46110;SDS011;31849;55.992;37.252;2022-09-13T09:57:20;5.80;;;3.10;;
46110;SDS011;31849;55.992;37.252;2022-09-13T10:02:26;7.50;;;3.03;;
46110;SDS011;31849;55.992;37.252;2022-09-13T10:07:30;6.65;;;3.08;;
46110;SDS011;31849;55.992;37.252;2022-09-13T10:12:36;5.07;;;3.15;;
46110;SDS011;31849;55.992;37.252;2022-09-13T10:17:43;4.22;;;2.47;;
46110;SDS011;31849;55.992;37.252;2022-09-13T10:23:08;6.70;;;2.92;;
46110;SDS011;31849;55.992;37.252;2022-09-13T10:28:17;5.45;;;2.50;;
46110;SDS011;31849;55.992;37.252;2022-09-13T10:33:25;6.25;;;2.55;;
46110;SDS011;31849;55.992;37.252;2022-09-13T10:38:32;4.05;;;2.53;;
46110;SDS011;31849;55.992;37.252;2022-09-13T10:43:44;4.20;;;2.30;;
46110;SDS011;31849;55.992;37.252;2022-09-13T10:48:49;6.75;;;2.63;;
46110;SDS011;31849;55.992;37.252;2022-09-13T10:54:11;7.13;;;2.55;;
46110;SDS011;31849;55.992;37.252;2022-09-13T10:59:21;4.13;;;2.40;;
46110;SDS011;31849;55.992;37.252;2022-09-13T11:10:10;6.00;;;2.53;;
46110;SDS011;31849;55.992;37.252;2022-09-13T11:15:25;3.83;;;2.38;;
46110;SDS011;31849;55.992;37.252;2022-09-13T11:20:39;4.53;;;2.08;;
46110;SDS011;31849;55.992;37.252;2022-09-13T11:25:56;5.53;;;2.17;;
46110;SDS011;31849;55.992;37.252;2022-09-13T11:31:17;7.35;;;2.85;;
46110;SDS011;31849;55.992;37.252;2022-09-13T11:36:45;4.45;;;2.35;;
46110;SDS011;31849;55.992;37.252;2022-09-13T11:42:07;6.32;;;2.47;;
46110;SDS011;31849;55.992;37.252;2022-09-13T11:47:22;7.70;;;2.53;;
46110;SDS011;31849;55.992;37.252;2022-09-13T11:52:37;5.30;;;2.60;;
46110;SDS011;31849;55.992;37.252;2022-09-13T11:57:54;5.78;;;2.55;;
46110;SDS011;31849;55.992;37.252;2022-09-13T12:03:02;5.38;;;2.63;;
46110;SDS011;31849;55.992;37.252;2022-09-13T12:08:16;5.00;;;2.70;;
46110;SDS011;31849;55.992;37.252;2022-09-13T12:13:26;4.43;;;2.63;;
46110;SDS011;31849;55.992;37.252;2022-09-13T12:18:33;5.18;;;2.50;;
46110;SDS011;31849;55.992;37.252;2022-09-13T12:23:42;5.90;;;2.97;;
46110;SDS011;31849;55.992;37.252;2022-09-13T12:28:53;5.78;;;2.50;;
46110;SDS011;31849;55.992;37.252;2022-09-13T12:34:00;4.47;;;2.78;;
46110;SDS011;31849;55.992;37.252;2022-09-13T12:39:19;9.13;;;2.88;;
46110;SDS011;31849;55.992;37.252;2022-09-13T12:50:04;8.30;;;2.70;;
46110;SDS011;31849;55.992;37.252;2022-09-13T12:55:48;4.97;;;2.50;;
46110;SDS011;31849;55.992;37.252;2022-09-13T13:01:10;8.05;;;3.03;;
46110;SDS011;31849;55.992;37.252;2022-09-13T13:11:28;6.28;;;2.60;;
46110;SDS011;31849;55.992;37.252;2022-09-13T13:16:44;6.97;;;2.63;;
46110;SDS011;31849;55.992;37.252;2022-09-13T13:21:50;8.20;;;2.47;;
46110;SDS011;31849;55.992;37.252;2022-09-13T13:26:56;6.18;;;2.75;;
46110;SDS011;31849;55.992;37.252;2022-09-13T13:32:07;6.93;;;2.65;;
46110;SDS011;31849;55.992;37.252;2022-09-13T13:37:24;6.07;;;2.30;;
46110;SDS011;31849;55.992;37.252;2022-09-13T13:42:36;7.32;;;2.80;;
46110;SDS011;31849;55.992;37.252;2022-09-13T13:47:51;4.15;;;2.60;;
46110;SDS011;31849;55.992;37.252;2022-09-13T13:52:58;7.43;;;2.10;;
46110;SDS011;31849;55.992;37.252;2022-09-13T13:58:33;4.93;;;2.35;;
46110;SDS011;31849;55.992;37.252;2022-09-13T14:03:51;5.45;;;2.00;;
46110;SDS011;31849;55.992;37.252;2022-09-13T14:09:11;3.40;;;2.15;;
46110;SDS011;31849;55.992;37.252;2022-09-13T14:14:39;4.05;;;2.03;;
46110;SDS011;31849;55.992;37.252;2022-09-13T14:19:54;4.78;;;2.17;;
46110;SDS011;31849;55.992;37.252;2022-09-13T14:25:13;4.28;;;1.90;;
46110;SDS011;31849;55.992;37.252;2022-09-13T14:30:26;6.50;;;2.03;;
46110;SDS011;31849;55.992;37.252;2022-09-13T14:35:36;4.20;;;1.92;;
46110;SDS011;31849;55.992;37.252;2022-09-13T14:40:45;3.63;;;1.80;;
46110;SDS011;31849;55.992;37.252;2022-09-13T14:45:52;3.17;;;1.77;;
46110;SDS011;31849;55.992;37.252;2022-09-13T14:51:05;5.20;;;1.73;;
46110;SDS011;31849;55.992;37.252;2022-09-13T14:56:17;3.88;;;1.98;;
46110;SDS011;31849;55.992;37.252;2022-09-13T15:01:30;4.30;;;2.13;;
46110;SDS011;31849;55.992;37.252;2022-09-13T15:06:39;4.07;;;2.40;;
46110;SDS011;31849;55.992;37.252;2022-09-13T15:11:54;6.50;;;2.55;;
46110;SDS011;31849;55.992;37.252;2022-09-13T15:17:05;4.78;;;1.90;;
46110;SDS011;31849;55.992;37.252;2022-09-13T15:22:23;5.15;;;2.40;;
46110;SDS011;31849;55.992;37.252;2022-09-13T15:27:29;6.93;;;2.20;;
46110;SDS011;31849;55.992;37.252;2022-09-13T15:32:38;4.63;;;2.08;;
46110;SDS011;31849;55.992;37.252;2022-09-13T15:37:45;3.63;;;2.20;;
46110;SDS011;31849;55.992;37.252;2022-09-13T15:42:50;11.95;;;2.72;;
46110;SDS011;31849;55.992;37.252;2022-09-13T15:53:00;5.18;;;1.90;;
46110;SDS011;31849;55.992;37.252;2022-09-13T15:58:04;4.15;;;2.00;;
46110;SDS011;31849;55.992;37.252;2022-09-13T16:03:08;6.15;;;2.40;;
46110;SDS011;31849;55.992;37.252;2022-09-13T16:08:13;5.70;;;2.10;;
46110;SDS011;31849;55.992;37.252;2022-09-13T16:13:18;9.63;;;2.13;;
46110;SDS011;31849;55.992;37.252;2022-09-13T16:18:22;5.85;;;2.63;;
46110;SDS011;31849;55.992;37.252;2022-09-13T16:23:28;5.22;;;2.85;;
46110;SDS011;31849;55.992;37.252;2022-09-13T16:28:32;5.32;;;2.85;;
46110;SDS011;31849;55.992;37.252;2022-09-13T16:33:37;4.82;;;2.70;;
46110;SDS011;31849;55.992;37.252;2022-09-13T16:43:47;4.07;;;2.50;;
46110;SDS011;31849;55.992;37.252;2022-09-13T16:48:51;6.83;;;2.40;;
46110;SDS011;31849;55.992;37.252;2022-09-13T16:53:58;4.22;;;2.85;;
46110;SDS011;31849;55.992;37.252;2022-09-13T16:59:02;8.23;;;3.20;;
46110;SDS011;31849;55.992;37.252;2022-09-13T17:04:07;6.43;;;2.65;;
46110;SDS011;31849;55.992;37.252;2022-09-13T17:09:13;5.53;;;2.92;;
46110;SDS011;31849;55.992;37.252;2022-09-13T17:14:18;6.70;;;3.22;;
46110;SDS011;31849;55.992;37.252;2022-09-13T17:19:23;6.35;;;3.20;;
46110;SDS011;31849;55.992;37.252;2022-09-13T17:24:30;7.28;;;2.90;;
46110;SDS011;31849;55.992;37.252;2022-09-13T17:29:42;6.88;;;2.85;;
46110;SDS011;31849;55.992;37.252;2022-09-13T17:34:47;5.30;;;3.03;;
46110;SDS011;31849;55.992;37.252;2022-09-13T17:39:54;4.57;;;2.72;;
46110;SDS011;31849;55.992;37.252;2022-09-13T17:44:59;5.28;;;3.22;;
46110;SDS011;31849;55.992;37.252;2022-09-13T17:50:04;6.35;;;3.13;;
46110;SDS011;31849;55.992;37.252;2022-09-13T17:55:11;4.72;;;3.05;;
46110;SDS011;31849;55.992;37.252;2022-09-13T18:00:16;6.22;;;3.10;;
46110;SDS011;31849;55.992;37.252;2022-09-13T18:05:21;6.68;;;3.00;;
46110;SDS011;31849;55.992;37.252;2022-09-13T18:10:27;6.13;;;2.97;;
46110;SDS011;31849;55.992;37.252;2022-09-13T18:15:58;6.30;;;3.70;;
46110;SDS011;31849;55.992;37.252;2022-09-13T18:21:04;5.65;;;2.90;;
46110;SDS011;31849;55.992;37.252;2022-09-13T18:26:12;4.80;;;2.75;;
46110;SDS011;31849;55.992;37.252;2022-09-13T18:31:17;5.43;;;3.17;;
46110;SDS011;31849;55.992;37.252;2022-09-13T18:36:22;6.43;;;3.45;;
46110;SDS011;31849;55.992;37.252;2022-09-13T18:41:30;5.43;;;3.38;;
46110;SDS011;31849;55.992;37.252;2022-09-13T18:46:38;4.90;;;3.35;;
46110;SDS011;31849;55.992;37.252;2022-09-13T18:51:43;7.57;;;3.40;;
46110;SDS011;31849;55.992;37.252;2022-09-13T18:56:48;5.03;;;3.47;;
46110;SDS011;31849;55.992;37.252;2022-09-13T19:01:53;5.10;;;3.30;;
46110;SDS011;31849;55.992;37.252;2022-09-13T19:06:58;5.13;;;3.38;;
46110;SDS011;31849;55.992;37.252;2022-09-13T19:17:09;4.38;;;3.53;;
46110;SDS011;31849;55.992;37.252;2022-09-13T19:22:13;6.68;;;3.40;;
46110;SDS011;31849;55.992;37.252;2022-09-13T19:27:20;5.90;;;3.60;;
46110;SDS011;31849;55.992;37.252;2022-09-13T19:32:23;7.35;;;3.78;;
46110;SDS011;31849;55.992;37.252;2022-09-13T19:37:27;8.85;;;4.25;;
46110;SDS011;31849;55.992;37.252;2022-09-13T19:42:32;8.90;;;4.32;;
46110;SDS011;31849;55.992;37.252;2022-09-13T19:53:00;6.03;;;3.90;;
46110;SDS011;31849;55.992;37.252;2022-09-13T19:58:04;5.88;;;3.92;;
46110;SDS011;31849;55.992;37.252;2022-09-13T20:03:08;5.15;;;4.05;;
46110;SDS011;31849;55.992;37.252;2022-09-13T20:08:12;6.25;;;3.78;;
46110;SDS011;31849;55.992;37.252;2022-09-13T20:13:17;7.88;;;4.80;;
46110;SDS011;31849;55.992;37.252;2022-09-13T20:18:20;5.40;;;4.00;;
46110;SDS011;31849;55.992;37.252;2022-09-13T20:23:24;5.03;;;4.03;;
46110;SDS011;31849;55.992;37.252;2022-09-13T20:28:30;4.78;;;3.90;;
46110;SDS011;31849;55.992;37.252;2022-09-13T20:33:34;6.68;;;4.00;;
46110;SDS011;31849;55.992;37.252;2022-09-13T20:38:40;5.07;;;3.97;;
46110;SDS011;31849;55.992;37.252;2022-09-13T20:43:46;6.07;;;3.75;;
46110;SDS011;31849;55.992;37.252;2022-09-13T20:48:50;6.63;;;3.50;;
46110;SDS011;31849;55.992;37.252;2022-09-13T20:53:54;4.80;;;3.42;;
46110;SDS011;31849;55.992;37.252;2022-09-13T20:59:02;5.10;;;3.60;;
46110;SDS011;31849;55.992;37.252;2022-09-13T21:04:07;5.20;;;3.65;;
46110;SDS011;31849;55.992;37.252;2022-09-13T21:09:11;9.38;;;4.45;;
46110;SDS011;31849;55.992;37.252;2022-09-13T21:14:17;4.73;;;4.03;;
46110;SDS011;31849;55.992;37.252;2022-09-13T21:19:22;5.20;;;3.80;;
46110;SDS011;31849;55.992;37.252;2022-09-13T21:24:28;4.85;;;3.85;;
46110;SDS011;31849;55.992;37.252;2022-09-13T21:29:34;5.53;;;3.60;;
46110;SDS011;31849;55.992;37.252;2022-09-13T21:34:37;4.80;;;4.00;;
46110;SDS011;31849;55.992;37.252;2022-09-13T21:39:40;4.53;;;3.70;;
46110;SDS011;31849;55.992;37.252;2022-09-13T21:44:46;5.85;;;4.35;;
46110;SDS011;31849;55.992;37.252;2022-09-13T21:49:49;6.43;;;4.45;;
46110;SDS011;31849;55.992;37.252;2022-09-13T21:54:54;5.05;;;3.90;;
46110;SDS011;31849;55.992;37.252;2022-09-13T21:59:59;6.40;;;4.50;;
46110;SDS011;31849;55.992;37.252;2022-09-13T22:05:05;5.28;;;3.88;;
46110;SDS011;31849;55.992;37.252;2022-09-13T22:10:08;6.47;;;4.57;;
46110;SDS011;31849;55.992;37.252;2022-09-13T22:15:14;8.45;;;4.80;;
46110;SDS011;31849;55.992;37.252;2022-09-13T22:20:18;6.53;;;4.85;;
46110;SDS011;31849;55.992;37.252;2022-09-13T22:25:22;5.95;;;5.35;;
46110;SDS011;31849;55.992;37.252;2022-09-13T22:30:29;5.90;;;4.97;;
46110;SDS011;31849;55.992;37.252;2022-09-13T22:35:33;5.82;;;5.20;;
46110;SDS011;31849;55.992;37.252;2022-09-13T22:40:37;6.63;;;5.60;;
46110;SDS011;31849;55.992;37.252;2022-09-13T22:45:42;7.05;;;5.90;;
46110;SDS011;31849;55.992;37.252;2022-09-13T22:50:49;8.05;;;6.10;;
46110;SDS011;31849;55.992;37.252;2022-09-13T22:55:54;9.85;;;6.43;;
46110;SDS011;31849;55.992;37.252;2022-09-13T23:01:03;6.90;;;5.77;;
46110;SDS011;31849;55.992;37.252;2022-09-13T23:06:10;7.68;;;6.70;;
46110;SDS011;31849;55.992;37.252;2022-09-13T23:11:15;9.40;;;7.30;;
46110;SDS011;31849;55.992;37.252;2022-09-13T23:16:22;8.68;;;6.75;;
46110;SDS011;31849;55.992;37.252;2022-09-13T23:21:30;11.30;;;7.82;;
46110;SDS011;31849;55.992;37.252;2022-09-13T23:26:35;7.18;;;6.47;;
46110;SDS011;31849;55.992;37.252;2022-09-13T23:31:43;9.98;;;6.90;;
46110;SDS011;31849;55.992;37.252;2022-09-13T23:36:48;8.32;;;6.28;;
46110;SDS011;31849;55.992;37.252;2022-09-13T23:41:52;7.55;;;5.80;;
46110;SDS011;31849;55.992;37.252;2022-09-13T23:46:58;8.07;;;6.20;;
46110;SDS011;31849;55.992;37.252;2022-09-13T23:52:02;8.85;;;5.85;;
46110;SDS011;31849;55.992;37.252;2022-09-13T23:57:06;8.57;;;6.45;;
